Site contains unofficial IBTrACS data. Visit the IBTrACS Website to access archived data.

1915 NOT_NAMED (1915339N10131)


IBTrACS version v04r00. Visit IBTrACS website for data access.
Please direct all questions to the IBTrACS Q and A forum

Storm track - Intensity - Wind Radii - Intensity Data - Source Data - All data

Summary Information

Storm ID 1915339N10131
Start Dec 4 22Z
Landfall Dec 7 09Z, Dec 7 18Z, Dec 7 22Z
End Dec 9 22Z
ATCF IDs
Track status Best track data.

Storm track plot

Map of storm track

Intensity plots

No Intensity information for this storm


Radial wind information

No radial wind information for this storm


Position and Intensity Table

BASIN ISO_TIME_________ NATURE LAT LON
degrees north degrees east
WP 1915-12-04 22:00:00 NR 10.00 130.60
WP 1915-12-05 00:00:00 NR 10.06 130.24
WP 03:00:00 NR 10.16 129.69
WP 06:00:00 NR 10.28 129.14
WP 09:00:00 NR 10.44 128.59
WP 10:00:00 NR 10.50 128.40
WP 12:00:00 NR 10.64 128.02
WP 15:00:00 NR 10.89 127.47
WP 18:00:00 NR 11.16 126.96
WP 21:00:00 NR 11.42 126.52
WP 22:00:00 NR 11.50 126.40
WP 1915-12-06 00:00:00 NR 11.65 126.20
WP 03:00:00 NR 11.87 125.96
WP 06:00:00 NR 12.07 125.79
WP 09:00:00 NR 12.25 125.65
WP 10:00:00 NR 12.30 125.60
WP 12:00:00 NR 12.40 125.50
WP 15:00:00 NR 12.53 125.35
WP 18:00:00 NR 12.65 125.19
WP 21:00:00 NR 12.76 124.98
WP 22:00:00 NR 12.80 124.90
WP 1915-12-07 00:00:00 NR 12.88 124.70
WP 03:00:00 NR 13.00 124.35
WP 06:00:00 NR 13.12 123.95
WP 09:00:00 NR 13.25 123.54
WP 10:00:00 NR 13.30 123.40
WP 12:00:00 NR 13.39 123.14
WP 15:00:00 NR 13.55 122.75
WP 18:00:00 NR 13.72 122.35
WP 21:00:00 NR 13.93 121.94
WP 22:00:00 NR 14.00 121.80
WP 1915-12-08 00:00:00 NR 14.17 121.52
WP 03:00:00 NR 14.46 121.09
WP 06:00:00 NR 14.75 120.66
WP 09:00:00 NR 15.02 120.24
WP 10:00:00 NR 15.10 120.10
WP 12:00:00 NR 15.23 119.81
WP 15:00:00 NR 15.40 119.39
WP 18:00:00 NR 15.54 118.99
WP 21:00:00 NR 15.66 118.62
WP 22:00:00 NR 15.70 118.50
WP 1915-12-09 00:00:00 NR 15.79 118.29
WP 03:00:00 NR 15.93 118.01
WP 06:00:00 NR 16.05 117.76
WP 09:00:00 NR 16.17 117.49
WP 10:00:00 NR 16.20 117.40
WP 12:00:00 NR 16.26 117.21
WP 15:00:00 NR 16.34 116.89
WP 18:00:00 NR 16.41 116.56
WP 21:00:00 NR 16.48 116.22
WP 22:00:00 NR 16.50 116.10

Source Information

Agency Information
USA
TOKYO
CMA
HKO
NEWDELHI
REUNION
BOM
NADI
WELLINGTON
DS824
TD9636 cons_worldwide_trop_cyclone_18710101-19891231-003:Line=5265
TD9635
NEUMANN
MLC

All available IBTrACS Data

SEASON BASIN SUBBASIN ISO_TIME_________ NATURE LAT LON DIST2LAND LANDFALL IFLAG USA SSHS TD9636 LAT TD9636 LON TD9636 STAGE STORM SPEED STORM DIR
Year degrees north degrees east km km 1 degrees north degrees east kts degrees
1915 WP MM 1915-12-04 22:00:00 NR 10.00 130.60 490 450 __________O___ -1 10.00 130.60 7 11 280
1915 WP MM 1915-12-05 00:00:00 NR 10.06 130.24 450 399 __________P___ -1 10.06 130.24 7 11 280
1915 WP MM 03:00:00 NR 10.16 129.69 399 341 __________P___ -1 10.16 129.69 7 11 282
1915 WP MM 06:00:00 NR 10.28 129.14 341 295 __________P___ -1 10.28 129.14 7 11 284
1915 WP MM 09:00:00 NR 10.44 128.59 295 281 __________P___ -1 10.44 128.59 7 11 287
1915 WP MM 10:00:00 NR 10.50 128.40 281 244 __________O___ -1 10.50 128.40 7 12 290
1915 WP MM 12:00:00 NR 10.64 128.02 244 186 __________P___ -1 10.64 128.02 7 12 293
1915 WP MM 15:00:00 NR 10.89 127.47 186 131 __________P___ -1 10.89 127.47 7 12 296
1915 WP MM 18:00:00 NR 11.16 126.96 132 88 __________P___ -1 11.16 126.96 7 11 300
1915 WP MM 21:00:00 NR 11.42 126.52 88 86 __________P___ -1 11.42 126.52 7 10 302
1915 WP MM 22:00:00 NR 11.50 126.40 86 69 __________O___ -1 11.50 126.40 2 8 306
1915 WP MM 1915-12-06 00:00:00 NR 11.65 126.20 73 55 __________P___ -1 11.65 126.20 2 7 311
1915 WP MM 03:00:00 NR 11.87 125.96 58 34 __________P___ -1 11.87 125.96 2 6 317
1915 WP MM 06:00:00 NR 12.07 125.79 34 10 __________P___ -1 12.07 125.79 2 5 321
1915 WP MM 09:00:00 NR 12.25 125.65 10 15 __________P___ -1 12.25 125.65 2 5 321
1915 WP MM 10:00:00 NR 12.30 125.60 15 15 __________O___ -1 12.30 125.60 2 4 317
1915 WP MM 12:00:00 NR 12.40 125.50 21 15 __________P___ -1 12.40 125.50 2 4 314
1915 WP MM 15:00:00 NR 12.53 125.35 15 10 __________P___ -1 12.53 125.35 2 4 309
1915 WP MM 18:00:00 NR 12.65 125.19 11 22 __________P___ -1 12.65 125.19 2 4 303
1915 WP MM 21:00:00 NR 12.76 124.98 33 33 __________P___ -1 12.76 124.98 2 5 298
1915 WP MM 22:00:00 NR 12.80 124.90 33 33 __________O___ -1 12.80 124.90 2 6 292
1915 WP MM 1915-12-07 00:00:00 NR 12.88 124.70 46 21 __________P___ -1 12.88 124.70 2 7 290
1915 WP MM 03:00:00 NR 13.00 124.35 21 10 __________P___ -1 13.00 124.35 2 8 288
1915 WP MM 06:00:00 NR 13.12 123.95 11 0 __________P___ -1 13.12 123.95 2 8 288
1915 WP MM 09:00:00 NR 13.25 123.54 0 0 __________P___ -1 13.25 123.54 2 9 289
1915 WP MM 10:00:00 NR 13.30 123.40 0 0 __________O___ -1 13.30 123.40 2 8 290
1915 WP MM 12:00:00 NR 13.39 123.14 10 10 __________P___ -1 13.39 123.14 2 8 291
1915 WP MM 15:00:00 NR 13.55 122.75 10 0 __________P___ -1 13.55 122.75 2 8 293
1915 WP MM 18:00:00 NR 13.72 122.35 0 0 __________P___ -1 13.72 122.35 2 9 296
1915 WP MM 21:00:00 NR 13.93 121.94 10 0 __________P___ -1 13.93 121.94 2 9 297
1915 WP MM 22:00:00 NR 14.00 121.80 0 0 __________O___ -1 14.00 121.80 2 10 301
1915 WP MM 1915-12-08 00:00:00 NR 14.17 121.52 0 0 __________P___ -1 14.17 121.52 2 10 304
1915 WP MM 03:00:00 NR 14.46 121.09 0 0 __________P___ -1 14.46 121.09 2 10 305
1915 WP MM 06:00:00 NR 14.75 120.66 0 0 __________P___ -1 14.75 120.66 2 10 304
1915 WP MM 09:00:00 NR 15.02 120.24 0 0 __________P___ -1 15.02 120.24 2 10 303
1915 WP MM 10:00:00 NR 15.10 120.10 0 0 __________O___ -1 15.10 120.10 2 9 297
1915 WP MM 12:00:00 NR 15.23 119.81 24 15 __________P___ -1 15.23 119.81 2 9 293
1915 WP MM 15:00:00 NR 15.40 119.39 53 53 __________P___ -1 15.40 119.39 2 9 291
1915 WP MM 18:00:00 NR 15.54 118.99 93 93 __________P___ -1 15.54 118.99 2 8 289
1915 WP MM 21:00:00 NR 15.66 118.62 122 122 __________P___ -1 15.66 118.62 2 7 289
1915 WP MM 22:00:00 NR 15.70 118.50 132 132 __________O___ -1 15.70 118.50 2 7 293
1915 WP MM 1915-12-09 00:00:00 NR 15.79 118.29 151 151 __________P___ -1 15.79 118.29 2 6 296
1915 WP MM 03:00:00 NR 15.93 118.01 182 181 __________P___ -1 15.93 118.01 2 6 297
1915 WP MM 06:00:00 NR 16.05 117.76 203 214 __________P___ -1 16.05 117.76 2 6 295
1915 WP MM 09:00:00 NR 16.17 117.49 236 236 __________P___ -1 16.17 117.49 2 6 293
1915 WP MM 10:00:00 NR 16.20 117.40 246 246 __________O___ -1 16.20 117.40 2 6 289
1915 WP MM 12:00:00 NR 16.26 117.21 269 269 __________P___ -1 16.26 117.21 2 6 286
1915 WP MM 15:00:00 NR 16.34 116.89 301 301 __________P___ -1 16.34 116.89 2 6 284
1915 WP MM 18:00:00 NR 16.41 116.56 334 344 __________P___ -1 16.41 116.56 2 7 282
1915 WP MM 21:00:00 NR 16.48 116.22 377 377 __________P___ -1 16.48 116.22 2 7 281
1915 WP MM 22:00:00 NR 16.50 116.10 388 __________O___ -1 16.50 116.10 7 7 281